createdAt,value
2017-08-30T02:36:19.313Z,34.9
2017-08-30T02:47:19.082Z,34.9
2017-08-30T02:58:18.867Z,34.8
2017-08-30T03:09:19.139Z,34.9
2017-08-30T03:20:20.344Z,35
2017-08-30T03:31:18.823Z,34.4
2017-08-30T03:42:19.506Z,34.2
2017-08-30T03:53:19.727Z,33.7
2017-08-30T04:04:19.659Z,33.1
2017-08-30T04:15:19.656Z,33.3
2017-08-30T04:26:19.527Z,33.5
2017-08-30T04:37:19.173Z,32.8
2017-08-30T04:48:21.276Z,32.8
2017-08-30T04:59:18.992Z,33.2
2017-08-30T05:10:19.991Z,32.9
2017-08-30T05:21:19.339Z,33.4
2017-08-30T05:32:19.940Z,33.1
2017-08-30T05:43:19.924Z,33.2
2017-08-30T05:54:19.891Z,33.1
2017-08-30T06:05:19.801Z,33.1
2017-08-30T06:16:19.936Z,33.8
2017-08-30T06:27:18.868Z,34.3
2017-08-30T06:38:19.015Z,34.1
2017-08-30T06:49:19.199Z,34
2017-08-30T07:00:19.026Z,34.6
2017-08-30T07:11:19.227Z,34.8
2017-08-30T07:22:19.277Z,34.8
2017-08-30T07:33:19.378Z,35.3
2017-08-30T07:44:18.970Z,35.4
2017-08-30T07:55:19.513Z,35.5
2017-08-30T08:06:19.799Z,34.9
2017-08-30T08:17:19.859Z,35.7
2017-08-30T08:28:19.110Z,35.6
2017-08-30T08:39:19.322Z,35.8
2017-08-30T08:50:19.605Z,35.5
2017-08-30T09:01:19.694Z,36.1
2017-08-30T09:12:19.639Z,36.2
2017-08-30T09:23:18.838Z,35.9
2017-08-30T09:34:19.010Z,37.2
2017-08-30T09:45:18.560Z,36.8
2017-08-30T09:56:19.509Z,36.5
2017-08-30T10:07:19.714Z,36.3
2017-08-30T10:18:19.023Z,35.7
2017-08-30T10:29:19.965Z,35.5
2017-08-30T10:40:19.663Z,35.5
2017-08-30T10:51:19.234Z,34.6
2017-08-30T11:02:19.117Z,35.3
2017-08-30T11:13:20.464Z,38.1
2017-08-30T11:24:18.655Z,40.9
2017-08-30T11:35:19.459Z,42.1
2017-08-30T11:46:20.026Z,43.5
2017-08-30T11:57:19.743Z,45
2017-08-30T12:08:18.837Z,45.2
2017-08-30T12:19:18.747Z,43
2017-08-30T12:30:19.384Z,43.3
2017-08-30T12:41:20.228Z,44
2017-08-30T12:52:19.375Z,42.9
2017-08-30T13:03:19.992Z,43.8
2017-08-30T13:14:19.623Z,42.8
2017-08-30T13:25:19.180Z,41.8
2017-08-30T13:36:19.942Z,42.2
2017-08-30T13:47:19.556Z,42.1
2017-08-30T13:58:19.316Z,42.1
2017-08-30T14:09:19.893Z,41.8
2017-08-30T14:20:20.058Z,41.5
2017-08-30T14:31:18.956Z,41.1
2017-08-30T14:42:20.069Z,40.2
2017-08-30T14:53:18.943Z,40.8
2017-08-30T15:04:18.983Z,40.3
2017-08-30T15:15:19.808Z,38.3
2017-08-30T15:26:19.557Z,39.5
2017-08-30T15:37:19.162Z,39
2017-08-30T15:48:18.733Z,39.5
2017-08-30T15:59:19.770Z,38.6
2017-08-30T16:10:18.997Z,38
2017-08-30T16:21:19.016Z,38
2017-08-30T16:32:19.240Z,38.8
2017-08-30T16:43:20.021Z,37.8
2017-08-30T16:54:19.300Z,38.3
2017-08-30T17:05:19.203Z,38.2
2017-08-30T17:16:19.349Z,37.7
2017-08-30T17:27:19.702Z,37.3
2017-08-30T17:38:19.179Z,37.2
2017-08-30T17:49:19.666Z,36.8
2017-08-30T18:00:19.528Z,37
2017-08-30T18:11:19.073Z,37
2017-08-30T18:22:19.390Z,36.4
2017-08-30T18:33:19.315Z,36.5
2017-08-30T18:44:19.727Z,35.9
2017-08-30T18:55:19.503Z,35.8
2017-08-30T19:06:18.728Z,36.1
2017-08-30T19:17:19.366Z,35.4
2017-08-30T19:28:19.095Z,35.9
2017-08-30T19:39:19.165Z,35.7
2017-08-30T19:50:19.478Z,61.7
2017-08-30T20:01:18.889Z,50.7
2017-08-30T20:12:19.486Z,35.7
2017-08-30T20:23:18.807Z,36.5
2017-08-30T20:34:18.983Z,37.6
2017-08-30T20:45:19.261Z,37
2017-08-30T20:56:19.059Z,36.9
2017-08-30T21:07:19.224Z,36.3
2017-08-30T21:18:20.219Z,36.5
2017-08-30T21:29:18.973Z,39.8
2017-08-30T21:40:19.788Z,41
2017-08-30T21:51:19.148Z,41.2
2017-08-30T22:02:19.179Z,41.8
2017-08-30T22:13:18.731Z,42.6
2017-08-30T22:24:19.452Z,43.2
2017-08-30T22:35:18.855Z,44.3
2017-08-30T22:46:19.128Z,41.7
2017-08-30T22:57:19.004Z,42.6
2017-08-30T23:08:19.617Z,41
2017-08-30T23:19:18.670Z,41.7
2017-08-30T23:30:19.561Z,40.4
2017-08-30T23:41:18.418Z,40.5
2017-08-30T23:52:20.183Z,39.5
